createdAt,value
2023-01-19T00:01:15.631Z,97682.98
2023-01-19T00:03:43.887Z,97680.51
2023-01-19T00:06:12.373Z,97680.80
2023-01-19T00:08:40.582Z,97689.64
2023-01-19T00:11:08.749Z,97693.10
2023-01-19T00:13:37.292Z,97692.67
2023-01-19T00:16:06.928Z,97688.05
2023-01-19T00:18:34.959Z,97697.98
2023-01-19T00:21:03.148Z,97699.81
2023-01-19T00:23:31.888Z,97698.23
2023-01-19T00:26:00.283Z,97695.91
2023-01-19T00:28:28.397Z,97695.23
2023-01-19T00:30:56.579Z,97694.42
2023-01-19T00:33:24.697Z,97693.39
2023-01-19T00:35:55.390Z,97698.30
2023-01-19T00:38:23.466Z,97695.86
2023-01-19T00:40:51.687Z,97701.34
2023-01-19T00:43:20.039Z,97704.96
2023-01-19T00:45:48.080Z,97707.52
2023-01-19T00:48:16.086Z,97708.61
2023-01-19T00:50:44.373Z,97706.77
2023-01-19T00:53:12.416Z,97706.93
2023-01-19T00:55:40.520Z,97707.90
2023-01-19T00:58:08.881Z,97704.06
2023-01-19T01:00:36.916Z,97701.58
2023-01-19T01:03:05.428Z,97701.55
2023-01-19T01:05:34.127Z,97695.86
2023-01-19T01:08:02.304Z,97695.73
2023-01-19T01:10:30.540Z,97693.79
2023-01-19T01:12:59.070Z,97694.31
2023-01-19T01:15:28.326Z,97692.13
2023-01-19T01:17:56.693Z,97690.20
2023-01-19T01:20:28.154Z,97690.40
2023-01-19T01:22:57.683Z,97686.39
2023-01-19T01:25:28.624Z,97680.90
2023-01-19T01:27:56.851Z,97676.33
2023-01-19T01:30:25.172Z,97670.55
2023-01-19T01:32:53.389Z,97667.85
2023-01-19T01:35:21.454Z,97663.29
2023-01-19T01:37:49.806Z,97664.46
2023-01-19T01:40:19.757Z,97669.80
2023-01-19T01:42:47.796Z,97668.64
2023-01-19T01:45:35.468Z,97675.59
2023-01-19T01:48:10.344Z,97680.38
2023-01-19T01:51:23.140Z,97685.27
2023-01-19T01:54:10.740Z,97691.02
2023-01-19T01:56:53.728Z,97690.30
2023-01-19T01:59:34.943Z,97688.08
2023-01-19T02:06:03.951Z,97681.17
2023-01-19T02:09:06.283Z,97672.58
2023-01-19T02:11:54.634Z,97675.64
2023-01-19T02:14:22.706Z,97673.54
2023-01-19T02:16:51.418Z,97670.46
2023-01-19T02:19:28.023Z,97669.68
2023-01-19T02:22:06.598Z,97668.13
2023-01-19T02:24:35.787Z,97669.04
2023-01-19T02:27:05.236Z,97668.95
2023-01-19T02:29:34.576Z,97669.89
2023-01-19T02:32:03.294Z,97668.39
2023-01-19T02:34:32.358Z,97668.05
2023-01-19T02:37:06.936Z,97669.98
2023-01-19T02:39:41.463Z,97667.94
2023-01-19T02:42:15.704Z,97666.73
2023-01-19T02:44:49.223Z,97673.89
2023-01-19T02:47:17.394Z,97675.70
2023-01-19T02:49:54.137Z,97673.77
2023-01-19T02:52:22.681Z,97674.36
2023-01-19T02:55:06.570Z,97676.81
2023-01-19T02:58:00.126Z,97678.25
2023-01-19T03:00:47.139Z,97687.74
2023-01-19T03:03:24.539Z,97694.61
2023-01-19T03:06:26.948Z,97698.98
2023-01-19T03:09:09.244Z,97700.50
2023-01-19T03:11:42.083Z,97700.41
2023-01-19T03:14:20.431Z,97700.67
2023-01-19T03:16:55.657Z,97705.24
2023-01-19T03:19:31.499Z,97711.34
2023-01-19T03:22:03.748Z,97715.13
2023-01-19T03:24:37.122Z,97714.52
2023-01-19T03:27:12.146Z,97708.27
2023-01-19T03:29:46.835Z,97709.16
2023-01-19T03:32:17.840Z,97722.54
2023-01-19T03:34:48.789Z,97727.02
2023-01-19T03:37:19.773Z,97718.88
2023-01-19T03:39:48.025Z,97717.26
2023-01-19T03:42:18.215Z,97718.65
2023-01-19T03:44:50.666Z,97715.33
2023-01-19T03:47:20.410Z,97720.74
2023-01-19T03:49:50.968Z,97724.28
2023-01-19T03:52:28.001Z,97725.79
2023-01-19T03:54:56.534Z,97721.02
2023-01-19T03:57:24.633Z,97714.27
2023-01-19T03:59:53.638Z,97712.23
2023-01-19T04:02:21.697Z,97711.39
2023-01-19T04:04:49.752Z,97712.04
2023-01-19T04:07:18.020Z,97719.38
2023-01-19T04:09:46.287Z,97725.52
2023-01-19T04:12:14.291Z,97728.31
2023-01-19T04:14:42.390Z,97733.15
2023-01-19T04:17:10.511Z,97731.13
2023-01-19T04:19:38.690Z,97725.70
2023-01-19T04:22:06.795Z,97724.59
2023-01-19T04:24:35.365Z,97725.98
2023-01-19T04:27:03.493Z,97725.90
2023-01-19T04:29:31.674Z,97737.17
2023-01-19T04:31:59.992Z,97742.17
2023-01-19T04:34:28.028Z,97740.46
2023-01-19T04:36:56.220Z,97741.15
2023-01-19T04:39:24.881Z,97746.66
2023-01-19T04:41:53.185Z,97753.86
2023-01-19T04:44:21.388Z,97764.60
2023-01-19T04:46:51.607Z,97768.94
2023-01-19T04:49:19.626Z,97768.77
2023-01-19T04:51:47.686Z,97774.79
2023-01-19T04:54:15.861Z,97775.49
2023-01-19T04:56:43.892Z,97776.84
2023-01-19T04:59:12.567Z,97781.10
2023-01-19T05:01:40.684Z,97782.27
2023-01-19T05:04:09.235Z,97780.54
2023-01-19T05:06:37.429Z,97785.44
2023-01-19T05:09:07.922Z,97789.59
2023-01-19T05:11:36.245Z,97799.83
2023-01-19T05:14:04.228Z,97805.48
2023-01-19T05:16:32.666Z,97809.80
2023-01-19T05:19:00.983Z,97811.64
2023-01-19T05:21:28.980Z,97815.20
2023-01-19T05:23:57.149Z,97818.27
2023-01-19T05:26:25.139Z,97816.96
2023-01-19T05:28:53.142Z,97815.48
2023-01-19T05:31:21.413Z,97812.52
2023-01-19T05:33:49.637Z,97813.27
2023-01-19T05:36:17.734Z,97818.05
2023-01-19T05:38:46.008Z,97823.00
2023-01-19T05:41:14.335Z,97830.10
2023-01-19T05:43:42.468Z,97835.81
2023-01-19T05:46:10.781Z,97839.54
2023-01-19T05:48:39.217Z,97841.84
2023-01-19T05:51:07.827Z,97855.13
2023-01-19T05:53:35.842Z,97862.47
2023-01-19T05:56:06.302Z,97866.36
2023-01-19T05:58:35.542Z,97874.58
2023-01-19T06:01:06.098Z,97877.66
2023-01-19T06:03:35.833Z,97881.05
2023-01-19T06:06:04.301Z,97880.60
2023-01-19T06:08:32.700Z,97883.17
2023-01-19T06:11:00.798Z,97890.70
2023-01-19T06:13:28.938Z,97890.98
2023-01-19T06:16:01.148Z,97889.73
2023-01-19T06:18:29.753Z,97884.60
2023-01-19T06:21:00.562Z,97883.13
2023-01-19T06:23:31.871Z,97882.96
2023-01-19T06:26:00.553Z,97883.09
2023-01-19T06:28:28.723Z,97885.70
2023-01-19T06:30:57.554Z,97885.38
2023-01-19T06:33:26.258Z,97886.40
2023-01-19T06:35:55.402Z,97875.09
2023-01-19T06:38:23.742Z,97870.88
2023-01-19T06:40:54.697Z,97878.42
2023-01-19T06:43:23.114Z,97876.15
2023-01-19T06:45:52.169Z,97873.39
2023-01-19T06:48:21.154Z,97871.76
2023-01-19T06:50:49.226Z,97863.74
2023-01-19T06:53:17.652Z,97868.65
2023-01-19T06:55:46.144Z,97872.16
2023-01-19T06:58:14.261Z,97876.48
2023-01-19T07:00:43.329Z,97880.22
2023-01-19T07:03:20.539Z,97880.98
2023-01-19T07:05:53.248Z,97879.81
2023-01-19T07:08:21.346Z,97881.33
2023-01-19T07:11:25.535Z,97889.06
2023-01-19T07:13:40.173Z,97899.77
2023-01-19T07:16:11.556Z,97906.63
2023-01-19T07:18:41.122Z,97916.84
2023-01-19T07:21:09.728Z,97914.63
2023-01-19T07:23:38.636Z,97918.35
2023-01-19T07:26:07.103Z,97918.01
2023-01-19T07:28:37.212Z,97926.44
2023-01-19T07:31:05.732Z,97929.81
2023-01-19T07:33:34.130Z,97941.16
2023-01-19T07:36:02.192Z,97944.17
2023-01-19T07:38:30.217Z,97954.61
2023-01-19T07:41:02.781Z,97956.64
2023-01-19T07:43:31.565Z,97954.30
2023-01-19T07:46:01.997Z,97950.63
2023-01-19T07:48:30.331Z,97947.46
2023-01-19T07:51:05.356Z,97951.91
2023-01-19T07:53:33.710Z,97956.45
2023-01-19T07:56:01.944Z,97964.30
2023-01-19T07:58:30.157Z,97962.89
2023-01-19T08:00:58.540Z,97964.47
2023-01-19T08:03:26.624Z,97965.48
2023-01-19T08:05:54.908Z,97971.60
2023-01-19T08:08:23.443Z,97973.58
2023-01-19T08:10:52.570Z,97973.66
2023-01-19T08:13:20.856Z,97966.09
2023-01-19T08:15:51.517Z,97964.34
2023-01-19T08:18:21.102Z,97960.59
2023-01-19T08:20:49.391Z,97962.02
2023-01-19T08:23:18.397Z,97960.34
2023-01-19T08:25:46.589Z,97963.87
2023-01-19T08:28:16.417Z,97964.34
2023-01-19T08:30:45.414Z,97964.81
2023-01-19T08:33:14.140Z,97964.84
2023-01-19T08:35:47.438Z,97959.04
2023-01-19T08:38:17.257Z,97953.59
2023-01-19T08:40:45.563Z,97952.91
2023-01-19T08:43:16.415Z,97952.82
2023-01-19T08:45:51.695Z,97958.89
2023-01-19T08:48:24.580Z,97964.35
2023-01-19T08:50:53.063Z,97977.58
2023-01-19T08:53:23.738Z,97984.40
2023-01-19T08:56:00.124Z,97985.95
2023-01-19T08:58:28.735Z,97984.58
2023-01-19T09:00:59.660Z,97983.30
2023-01-19T09:03:27.939Z,97985.69
2023-01-19T09:05:55.976Z,97986.82
2023-01-19T09:08:24.060Z,97989.01
2023-01-19T09:10:52.059Z,97992.45
2023-01-19T09:13:20.524Z,97992.67
2023-01-19T09:15:48.644Z,97994.20
2023-01-19T09:18:22.560Z,97989.25
2023-01-19T09:20:50.937Z,97986.48
2023-01-19T09:23:20.628Z,97985.27
2023-01-19T09:25:49.400Z,97982.52
2023-01-19T09:28:17.897Z,97980.89
2023-01-19T09:30:46.795Z,97976.84
2023-01-19T09:33:17.297Z,97976.53
2023-01-19T09:35:47.185Z,97973.66
2023-01-19T09:38:16.873Z,97972.48
2023-01-19T09:40:51.961Z,97968.20
2023-01-19T09:43:26.365Z,97959.30
2023-01-19T09:46:03.674Z,97956.23
2023-01-19T09:48:48.693Z,97960.63
2023-01-19T09:51:19.775Z,97963.52
2023-01-19T09:53:55.613Z,97970.44
2023-01-19T09:56:24.790Z,97972.29
2023-01-19T09:58:53.178Z,97978.26
2023-01-19T10:01:24.055Z,97983.44
2023-01-19T10:04:14.625Z,97990.45
2023-01-19T10:06:43.399Z,97997.17
2023-01-19T10:09:32.199Z,98001.36
2023-01-19T10:12:12.606Z,97998.56
2023-01-19T10:14:54.960Z,98003.95
2023-01-19T10:17:41.799Z,98007.11
2023-01-19T10:20:19.778Z,98008.80
2023-01-19T10:22:49.633Z,98006.77
2023-01-19T10:25:23.915Z,98005.79
2023-01-19T10:27:52.313Z,98003.90
2023-01-19T10:30:24.295Z,97999.74
2023-01-19T10:32:53.156Z,97996.55
2023-01-19T10:35:25.018Z,97996.90
2023-01-19T10:37:57.828Z,97996.78
2023-01-19T10:40:33.149Z,97994.05
2023-01-19T10:43:02.140Z,97987.56
2023-01-19T10:45:31.642Z,97983.09
2023-01-19T10:48:06.781Z,97978.33
2023-01-19T10:50:40.096Z,97971.17
2023-01-19T10:53:21.421Z,97968.92
2023-01-19T10:56:11.707Z,97969.38
2023-01-19T10:58:40.845Z,97966.48
2023-01-19T11:01:15.040Z,97965.08
2023-01-19T11:03:43.249Z,97965.39
2023-01-19T11:06:15.507Z,97966.25
2023-01-19T11:08:46.021Z,97972.49
2023-01-19T11:11:14.492Z,97965.84
2023-01-19T11:13:43.254Z,97961.33
2023-01-19T11:16:25.215Z,97963.73
2023-01-19T11:18:55.748Z,97953.18
2023-01-19T11:21:29.003Z,97954.48
2023-01-19T11:24:01.377Z,97950.59
2023-01-19T11:26:42.220Z,97953.85
2023-01-19T11:29:26.883Z,97946.55
2023-01-19T11:31:57.599Z,97945.09
2023-01-19T11:34:34.537Z,97945.95
2023-01-19T11:37:05.277Z,97937.98
2023-01-19T11:39:49.761Z,97934.34
2023-01-19T11:42:19.195Z,97932.82
2023-01-19T11:45:03.582Z,97933.47
2023-01-19T11:47:46.673Z,97934.18
2023-01-19T11:50:23.611Z,97929.86
2023-01-19T11:52:59.266Z,97928.16
2023-01-19T11:55:45.534Z,97926.44
2023-01-19T11:58:16.608Z,97919.89
2023-01-19T12:00:52.398Z,97922.17
2023-01-19T12:03:41.159Z,97925.02
2023-01-19T12:06:19.880Z,97922.60
2023-01-19T12:09:23.852Z,97922.20
2023-01-19T12:12:21.885Z,97920.14
2023-01-19T12:15:35.827Z,97917.77
2023-01-19T12:18:08.236Z,97913.80
2023-01-19T12:20:51.218Z,97920.94
2023-01-19T12:23:25.376Z,97923.80
2023-01-19T12:26:04.845Z,97924.63
2023-01-19T12:28:39.353Z,97926.25
2023-01-19T12:31:08.510Z,97930.11
2023-01-19T12:33:40.550Z,97937.91
2023-01-19T12:36:26.514Z,97944.14
2023-01-19T12:39:03.253Z,97946.02
2023-01-19T12:41:37.047Z,97945.74
2023-01-19T12:44:27.764Z,97944.36
2023-01-19T12:47:05.451Z,97947.41
2023-01-19T12:49:37.929Z,97948.77
2023-01-19T12:52:57.363Z,97950.55
2023-01-19T12:55:36.534Z,97951.02
2023-01-19T12:58:04.746Z,97946.73
2023-01-19T13:00:38.900Z,97947.30
2023-01-19T13:03:19.759Z,97949.13
2023-01-19T13:05:49.503Z,97946.05
2023-01-19T13:08:19.677Z,97943.00
2023-01-19T13:11:00.544Z,97945.25
2023-01-19T13:13:39.904Z,97946.84
2023-01-19T13:16:31.346Z,97941.10
2023-01-19T13:19:14.977Z,97939.46
2023-01-19T13:21:48.320Z,97940.95
2023-01-19T13:24:22.491Z,97936.09
2023-01-19T13:26:50.931Z,97934.23
2023-01-19T13:29:28.341Z,97938.71
2023-01-19T13:32:03.138Z,97941.08
2023-01-19T13:34:41.477Z,97944.65
2023-01-19T13:37:20.166Z,97949.73
2023-01-19T13:39:51.597Z,97949.95
2023-01-19T13:42:30.165Z,97955.97
2023-01-19T13:45:01.057Z,97957.41
2023-01-19T13:47:44.035Z,97962.59
2023-01-19T13:50:28.012Z,97967.39
2023-01-19T13:52:57.390Z,97968.54
2023-01-19T13:55:28.441Z,97968.42
2023-01-19T13:57:57.848Z,97963.73
2023-01-19T14:00:31.219Z,97966.77
2023-01-19T14:03:13.883Z,97967.42
2023-01-19T14:05:43.750Z,97963.36
2023-01-19T14:08:15.753Z,97967.70
2023-01-19T14:11:02.858Z,97973.28
2023-01-19T14:13:37.496Z,97977.79
2023-01-19T14:16:06.997Z,97973.45
2023-01-19T14:18:36.382Z,97977.05
2023-01-19T14:21:11.410Z,97981.10
2023-01-19T14:23:42.260Z,97991.88
2023-01-19T14:26:38.675Z,97992.78
2023-01-19T14:29:27.083Z,97988.88
2023-01-19T14:32:01.003Z,97989.84
2023-01-19T14:34:34.205Z,97988.84
2023-01-19T14:37:04.537Z,97992.00
2023-01-19T14:39:36.119Z,97989.60
2023-01-19T14:42:06.818Z,97986.50
2023-01-19T14:44:39.693Z,97987.92
2023-01-19T14:47:27.206Z,97996.89
2023-01-19T14:49:59.627Z,97999.21
2023-01-19T14:52:33.286Z,98007.13
2023-01-19T14:55:04.018Z,98010.89
2023-01-19T14:57:36.397Z,98013.06
2023-01-19T15:00:17.784Z,98018.45
2023-01-19T15:02:47.750Z,98010.62
2023-01-19T15:05:16.386Z,98006.18
2023-01-19T15:07:46.386Z,98002.61
2023-01-19T15:10:21.127Z,98004.40
2023-01-19T15:12:51.402Z,98009.63
2023-01-19T15:15:31.711Z,98008.30
2023-01-19T15:18:02.687Z,98010.83
2023-01-19T15:20:30.935Z,98011.23
2023-01-19T15:22:59.032Z,98011.29
2023-01-19T15:25:30.866Z,98017.70
2023-01-19T15:27:59.670Z,98022.56
2023-01-19T15:30:33.568Z,98027.97
2023-01-19T15:33:02.473Z,98028.58
2023-01-19T15:35:30.678Z,98033.39
2023-01-19T15:37:58.696Z,98035.74
2023-01-19T15:40:26.845Z,98036.06
2023-01-19T15:42:55.145Z,98040.27
2023-01-19T15:45:36.002Z,98037.50
2023-01-19T15:48:09.227Z,98038.81
2023-01-19T15:50:40.241Z,98041.44
2023-01-19T15:53:12.891Z,98042.21
2023-01-19T15:55:41.300Z,98045.88
2023-01-19T15:58:09.521Z,98046.90
2023-01-19T16:00:37.534Z,98053.63
2023-01-19T16:03:06.546Z,98049.30
2023-01-19T16:05:42.943Z,98052.16
2023-01-19T16:08:12.115Z,98052.47
2023-01-19T16:10:43.424Z,98047.72
2023-01-19T16:13:12.085Z,98050.30
2023-01-19T16:15:42.527Z,98047.52
2023-01-19T16:18:11.026Z,98043.61
2023-01-19T16:20:39.171Z,98042.46
2023-01-19T16:23:15.644Z,98046.52
2023-01-19T16:25:44.574Z,98052.33
2023-01-19T16:28:13.051Z,98052.27
2023-01-19T16:30:41.146Z,98052.54
2023-01-19T16:33:09.284Z,98054.36
2023-01-19T16:35:37.543Z,98050.44
2023-01-19T16:38:06.573Z,98050.17
2023-01-19T16:40:34.566Z,98048.79
2023-01-19T16:43:02.701Z,98045.63
2023-01-19T16:45:30.719Z,98044.76
2023-01-19T16:47:58.906Z,98045.57
2023-01-19T16:50:27.340Z,98043.80
2023-01-19T16:52:59.122Z,98041.24
2023-01-19T16:55:27.218Z,98037.33
2023-01-19T16:57:55.591Z,98036.88
2023-01-19T17:00:23.688Z,98037.39
2023-01-19T17:02:52.030Z,98043.05
2023-01-19T17:05:20.163Z,98044.51
2023-01-19T17:07:48.163Z,98044.00
2023-01-19T17:10:16.403Z,98044.86
2023-01-19T17:12:45.010Z,98046.09
2023-01-19T17:15:13.095Z,98044.92
2023-01-19T17:17:41.249Z,98048.73
2023-01-19T17:20:10.457Z,98047.03
2023-01-19T17:22:38.966Z,98048.22
2023-01-19T17:25:07.706Z,98050.37
2023-01-19T17:27:36.814Z,98052.30
2023-01-19T17:30:05.397Z,98055.09
2023-01-19T17:32:33.524Z,98056.55
2023-01-19T17:35:01.820Z,98056.81
2023-01-19T17:37:29.819Z,98058.16
2023-01-19T17:39:57.914Z,98057.95
2023-01-19T17:42:26.408Z,98061.02
2023-01-19T17:44:54.392Z,98063.54
2023-01-19T17:47:25.553Z,98063.02
2023-01-19T17:49:53.544Z,98061.62
2023-01-19T17:52:21.568Z,98066.69
2023-01-19T17:54:49.659Z,98068.05
2023-01-19T17:57:17.957Z,98069.69
2023-01-19T17:59:47.858Z,98071.44
2023-01-19T18:02:16.281Z,98070.73
2023-01-19T18:04:44.615Z,98062.46
2023-01-19T18:07:12.629Z,98068.17
2023-01-19T18:09:40.715Z,98073.55
2023-01-19T18:12:09.287Z,98069.65
2023-01-19T18:14:38.089Z,98073.52
2023-01-19T18:17:06.589Z,98071.30
2023-01-19T18:19:34.953Z,98073.08
2023-01-19T18:22:03.129Z,98072.06
2023-01-19T18:24:31.383Z,98074.50
2023-01-19T18:26:59.657Z,98072.87
2023-01-19T18:29:27.839Z,98072.02
2023-01-19T18:31:56.140Z,98067.21
2023-01-19T18:34:24.328Z,98076.42
2023-01-19T18:36:52.444Z,98076.02
2023-01-19T18:39:20.537Z,98077.45
2023-01-19T18:41:48.643Z,98078.19
2023-01-19T18:44:16.668Z,98073.77
2023-01-19T18:46:44.793Z,98076.23
2023-01-19T18:49:13.135Z,98076.42
2023-01-19T18:51:41.643Z,98078.91
2023-01-19T18:54:11.077Z,98078.55
2023-01-19T18:56:39.653Z,98079.03
2023-01-19T18:59:07.649Z,98083.33
2023-01-19T19:01:36.514Z,98082.89
2023-01-19T19:04:04.997Z,98084.55
2023-01-19T19:06:34.192Z,98085.39
2023-01-19T19:09:03.340Z,98088.23
2023-01-19T19:11:31.564Z,98089.55
2023-01-19T19:14:01.794Z,98081.74
2023-01-19T19:16:31.664Z,98084.48
2023-01-19T19:19:01.596Z,98086.31
2023-01-19T19:21:29.646Z,98086.89
2023-01-19T19:23:58.565Z,98092.13
2023-01-19T19:26:28.311Z,98096.33
2023-01-19T19:28:56.929Z,98098.80
2023-01-19T19:31:27.559Z,98102.79
2023-01-19T19:33:57.540Z,98106.44
2023-01-19T19:36:27.584Z,98108.31
2023-01-19T19:38:56.052Z,98106.45
2023-01-19T19:41:29.521Z,98101.55
2023-01-19T19:43:58.239Z,98109.23
2023-01-19T19:46:27.775Z,98111.27
2023-01-19T19:48:56.062Z,98117.79
2023-01-19T19:51:27.178Z,98124.54
2023-01-19T19:53:59.979Z,98129.33
2023-01-19T19:56:30.244Z,98133.35
2023-01-19T19:58:59.348Z,98130.52
2023-01-19T20:01:33.004Z,98132.11
2023-01-19T20:04:07.716Z,98133.78
2023-01-19T20:06:39.088Z,98135.77
2023-01-19T20:09:10.686Z,98136.98
2023-01-19T20:11:40.037Z,98142.41
2023-01-19T20:14:10.343Z,98140.75
2023-01-19T20:16:38.374Z,98141.89
2023-01-19T20:19:06.933Z,98141.66
2023-01-19T20:21:41.746Z,98142.81
2023-01-19T20:24:16.000Z,98144.14
2023-01-19T20:26:50.450Z,98142.42
2023-01-19T20:29:19.844Z,98148.08
2023-01-19T20:31:52.275Z,98154.91
2023-01-19T20:34:23.460Z,98154.21
2023-01-19T20:36:53.853Z,98156.23
2023-01-19T20:39:23.350Z,98157.45
2023-01-19T20:41:52.730Z,98162.45
2023-01-19T20:44:24.716Z,98170.94
2023-01-19T20:46:54.255Z,98175.04
2023-01-19T20:49:22.873Z,98175.81
2023-01-19T20:51:52.162Z,98175.05
2023-01-19T20:54:23.201Z,98179.66
2023-01-19T20:56:51.501Z,98187.92
2023-01-19T20:59:19.891Z,98191.93
2023-01-19T21:01:48.809Z,98200.16
2023-01-19T21:04:17.850Z,98204.54
2023-01-19T21:06:46.133Z,98208.23
2023-01-19T21:09:14.566Z,98211.73
2023-01-19T21:11:42.891Z,98216.71
2023-01-19T21:14:11.047Z,98217.17
2023-01-19T21:16:39.302Z,98225.73
2023-01-19T21:19:07.669Z,98236.08
2023-01-19T21:21:36.157Z,98233.31
2023-01-19T21:24:05.100Z,98239.96
2023-01-19T21:26:33.833Z,98243.96
2023-01-19T21:29:02.583Z,98248.98
2023-01-19T21:31:31.671Z,98257.55
2023-01-19T21:33:59.979Z,98266.82
2023-01-19T21:36:28.282Z,98271.39
2023-01-19T21:39:00.638Z,98277.11
2023-01-19T21:41:30.597Z,98282.23
2023-01-19T21:44:00.223Z,98284.40
2023-01-19T21:46:33.232Z,98283.73
2023-01-19T21:49:04.068Z,98284.02
2023-01-19T21:51:33.994Z,98287.40
2023-01-19T21:54:04.247Z,98288.86
2023-01-19T21:56:32.797Z,98286.05
2023-01-19T21:59:04.353Z,98281.31
2023-01-19T22:01:34.118Z,98281.23
2023-01-19T22:04:02.404Z,98277.39
2023-01-19T22:06:30.419Z,98278.02
2023-01-19T22:09:00.739Z,98285.24
2023-01-19T22:11:29.011Z,98289.91
2023-01-19T22:13:59.800Z,98291.46
2023-01-19T22:16:29.554Z,98295.40
2023-01-19T22:19:02.136Z,98300.18
2023-01-19T22:21:33.182Z,98304.23
2023-01-19T22:24:03.835Z,98305.73
2023-01-19T22:26:34.283Z,98302.95
2023-01-19T22:29:05.170Z,98304.48
2023-01-19T22:31:33.597Z,98307.41
2023-01-19T22:34:01.690Z,98307.86
2023-01-19T22:36:35.887Z,98311.45
2023-01-19T22:39:06.970Z,98313.13
2023-01-19T22:41:37.880Z,98313.11
2023-01-19T22:44:07.740Z,98313.63
2023-01-19T22:46:37.071Z,98314.88
2023-01-19T22:49:07.963Z,98319.70
2023-01-19T22:51:36.553Z,98317.88
2023-01-19T22:54:04.837Z,98320.46
2023-01-19T22:56:35.438Z,98318.39
2023-01-19T22:59:04.961Z,98316.67
2023-01-19T23:01:35.940Z,98313.36
2023-01-19T23:04:05.660Z,98311.38
2023-01-19T23:06:35.788Z,98313.52
2023-01-19T23:09:07.229Z,98312.86
2023-01-19T23:11:38.022Z,98317.15
2023-01-19T23:14:08.502Z,98318.52
2023-01-19T23:16:36.821Z,98322.39
2023-01-19T23:19:04.941Z,98316.73
2023-01-19T23:21:34.090Z,98326.95
2023-01-19T23:24:04.461Z,98324.28
2023-01-19T23:26:38.472Z,98324.55
2023-01-19T23:29:11.061Z,98325.96
2023-01-19T23:31:42.888Z,98327.67
2023-01-19T23:34:12.363Z,98329.42
2023-01-19T23:36:43.200Z,98333.86
2023-01-19T23:39:16.855Z,98335.77
2023-01-19T23:41:45.503Z,98330.70
2023-01-19T23:44:13.966Z,98334.00
2023-01-19T23:46:42.215Z,98336.95
2023-01-19T23:49:10.391Z,98337.66
2023-01-19T23:51:39.783Z,98333.25
2023-01-19T23:54:07.998Z,98336.30
2023-01-19T23:56:37.712Z,98332.48
2023-01-19T23:59:08.835Z,98331.71
